createdAt,value
2019-01-28T00:00:23.866Z,15.70
2019-01-28T00:02:30.666Z,15.27
2019-01-28T00:04:36.911Z,15.30
2019-01-28T00:06:43.305Z,13.43
2019-01-28T00:08:49.725Z,14.90
2019-01-28T00:10:58.566Z,13.57
2019-01-28T00:13:04.865Z,14.27
2019-01-28T00:15:13.006Z,15.33
2019-01-28T00:17:19.107Z,16.03
2019-01-28T00:19:25.748Z,14.47
2019-01-28T00:21:32.425Z,14.73
2019-01-28T00:23:39.347Z,16.63
2019-01-28T00:25:45.986Z,14.33
2019-01-28T00:27:53.866Z,15.60
2019-01-28T00:29:59.885Z,15.23
2019-01-28T00:32:06.455Z,14.90
2019-01-28T00:34:12.867Z,14.53
2019-01-28T00:36:19.167Z,16.03
2019-01-28T00:38:25.845Z,15.33
2019-01-28T00:40:33.126Z,15.43
2019-01-28T00:42:39.705Z,16.07
2019-01-28T00:44:46.028Z,14.13
2019-01-28T00:46:53.806Z,15.67
2019-01-28T00:49:01.485Z,14.87
2019-01-28T00:51:07.725Z,15.43
2019-01-28T00:53:14.665Z,14.80
2019-01-28T00:55:21.925Z,14.57
2019-01-28T00:57:29.285Z,14.63
2019-01-28T00:59:35.465Z,14.13
2019-01-28T01:01:41.826Z,14.00
2019-01-28T01:03:48.073Z,15.90
2019-01-28T01:05:54.545Z,14.47
2019-01-28T01:08:00.706Z,15.03
2019-01-28T01:10:12.026Z,16.43
2019-01-28T01:12:18.445Z,15.70
2019-01-28T01:14:24.614Z,15.83
2019-01-28T01:16:31.105Z,14.00
2019-01-28T01:18:37.594Z,15.10
2019-01-28T01:20:43.946Z,15.47
2019-01-28T01:22:50.788Z,15.23
2019-01-28T01:24:59.305Z,16.93
2019-01-28T01:27:05.846Z,16.87
2019-01-28T01:29:12.053Z,15.97
2019-01-28T01:31:18.886Z,15.27
2019-01-28T01:33:25.145Z,14.83
2019-01-28T01:35:33.513Z,14.47
2019-01-28T01:37:40.226Z,14.70
2019-01-28T01:39:47.964Z,14.23
2019-01-28T01:41:54.365Z,14.53
2019-01-28T01:44:00.625Z,14.40
2019-01-28T01:46:08.486Z,16.50
2019-01-28T01:48:14.927Z,16.37
2019-01-28T01:50:22.850Z,15.87
2019-01-28T01:52:30.065Z,15.37
2019-01-28T01:54:36.510Z,15.10
2019-01-28T01:56:43.205Z,18.67
2019-01-28T01:58:49.647Z,16.43
2019-01-28T02:00:56.105Z,17.53
2019-01-28T02:03:03.825Z,17.00
2019-01-28T02:05:10.826Z,16.53
2019-01-28T02:07:17.126Z,18.00
2019-01-28T02:09:23.606Z,17.77
2019-01-28T02:11:30.065Z,19.37
2019-01-28T02:13:36.566Z,16.97
2019-01-28T02:15:44.345Z,17.50
2019-01-28T02:17:51.345Z,17.03
2019-01-28T02:19:57.727Z,16.60
2019-01-28T02:22:04.006Z,16.33
2019-01-28T02:24:10.186Z,17.77
2019-01-28T02:26:16.506Z,17.40
2019-01-28T02:28:22.805Z,16.40
2019-01-28T02:30:29.155Z,17.93
2019-01-28T02:32:35.366Z,16.63
2019-01-28T02:34:41.565Z,17.23
2019-01-28T02:36:50.087Z,17.07
2019-01-28T02:38:56.927Z,17.67
2019-01-28T02:41:03.147Z,17.93
2019-01-28T02:43:10.525Z,16.63
2019-01-28T02:45:18.106Z,18.47
2019-01-28T02:47:24.554Z,18.63
2019-01-28T02:49:31.686Z,18.27
2019-01-28T02:51:38.731Z,18.10
2019-01-28T02:53:46.166Z,17.00
2019-01-28T02:55:54.253Z,17.23
2019-01-28T02:58:00.666Z,17.03
2019-01-28T03:00:20.105Z,17.17
2019-01-28T03:02:26.425Z,17.47
2019-01-28T03:04:34.246Z,19.73
2019-01-28T03:06:40.786Z,17.40
2019-01-28T03:08:47.105Z,18.73
2019-01-28T03:10:54.687Z,19.87
2019-01-28T03:13:03.625Z,17.07
2019-01-28T03:15:11.145Z,18.53
2019-01-28T03:17:17.385Z,20.67
2019-01-28T03:19:23.774Z,18.20
2019-01-28T03:21:30.385Z,19.20
2019-01-28T03:23:37.006Z,17.87
2019-01-28T03:25:43.267Z,17.40
2019-01-28T03:27:49.535Z,18.87
2019-01-28T03:29:56.165Z,18.80
2019-01-28T03:32:02.705Z,19.03
2019-01-28T03:34:09.387Z,19.10
2019-01-28T03:36:16.108Z,19.17
2019-01-28T03:38:22.625Z,21.40
2019-01-28T03:40:29.067Z,20.97
2019-01-28T03:42:35.987Z,20.50
2019-01-28T03:44:42.257Z,20.80
2019-01-28T03:46:48.527Z,20.23
2019-01-28T03:48:54.873Z,20.07
2019-01-28T03:51:01.129Z,19.37
2019-01-28T03:53:10.486Z,22.03
2019-01-28T03:55:16.848Z,20.87
2019-01-28T03:57:23.289Z,20.37
2019-01-28T03:59:29.927Z,21.27
2019-01-28T04:01:37.165Z,19.70
2019-01-28T04:03:43.845Z,21.23
2019-01-28T04:05:50.065Z,21.20
2019-01-28T04:07:56.565Z,20.17
2019-01-28T04:10:02.865Z,23.50
2019-01-28T04:12:09.585Z,20.23
2019-01-28T04:14:16.865Z,22.17
2019-01-28T04:16:23.208Z,21.67
2019-01-28T04:18:29.654Z,21.50
2019-01-28T04:20:36.265Z,21.87
2019-01-28T04:22:42.913Z,22.40
2019-01-28T04:24:49.486Z,23.40
2019-01-28T04:26:56.766Z,20.57
2019-01-28T04:29:03.133Z,22.57
2019-01-28T04:31:09.706Z,20.57
2019-01-28T04:33:16.301Z,24.10
2019-01-28T04:35:22.746Z,21.50
2019-01-28T04:37:29.147Z,23.23
2019-01-28T04:39:37.266Z,22.33
2019-01-28T04:41:43.527Z,22.63
2019-01-28T04:43:50.025Z,21.83
2019-01-28T04:45:56.352Z,23.10
2019-01-28T04:48:02.746Z,23.53
2019-01-28T04:50:13.105Z,25.37
2019-01-28T04:52:20.453Z,23.23
2019-01-28T04:54:27.534Z,22.77
2019-01-28T04:56:34.146Z,25.93
2019-01-28T04:58:41.265Z,23.57
2019-01-28T05:00:47.490Z,25.47
2019-01-28T05:02:53.745Z,22.83
2019-01-28T05:05:01.288Z,26.63
2019-01-28T05:07:07.935Z,24.40
2019-01-28T05:09:14.467Z,23.43
2019-01-28T05:11:20.981Z,24.73
2019-01-28T05:13:27.225Z,22.97
2019-01-28T05:15:33.886Z,21.50
2019-01-28T05:17:40.007Z,21.07
2019-01-28T05:19:46.545Z,22.20
2019-01-28T05:21:52.647Z,22.83
2019-01-28T05:23:59.226Z,21.87
2019-01-28T05:26:05.849Z,22.87
2019-01-28T05:28:13.045Z,25.00
2019-01-28T05:30:25.045Z,22.87
2019-01-28T05:32:31.425Z,23.43
2019-01-28T05:34:37.827Z,22.17
2019-01-28T05:36:45.493Z,22.80
2019-01-28T05:38:51.746Z,23.23
2019-01-28T05:40:58.246Z,25.10
2019-01-28T05:43:04.961Z,23.43
2019-01-28T05:45:17.866Z,21.10
2019-01-28T05:47:24.605Z,24.10
2019-01-28T05:49:31.657Z,24.33
2019-01-28T05:51:38.513Z,23.50
2019-01-28T05:53:44.967Z,22.43
2019-01-28T05:55:52.306Z,22.97
2019-01-28T05:57:58.885Z,24.47
2019-01-28T06:00:12.646Z,23.63
2019-01-28T06:02:19.266Z,24.50
2019-01-28T06:04:25.810Z,23.17
2019-01-28T06:06:32.506Z,25.37
2019-01-28T06:08:39.106Z,22.67
2019-01-28T06:10:45.926Z,23.43
2019-01-28T06:12:52.186Z,40.50
2019-01-28T06:14:58.506Z,33.90
2019-01-28T06:17:06.286Z,51.67
2019-01-28T06:19:14.905Z,27.20
2019-01-28T06:21:25.228Z,24.60
2019-01-28T06:23:33.565Z,24.77
2019-01-28T06:25:40.087Z,23.20
2019-01-28T06:27:46.448Z,23.67
2019-01-28T06:29:53.185Z,26.03
2019-01-28T06:32:01.526Z,24.63
2019-01-28T06:34:07.627Z,25.90
2019-01-28T06:36:14.186Z,24.47
2019-01-28T06:38:22.479Z,24.13
2019-01-28T06:40:35.385Z,24.50
2019-01-28T06:42:41.690Z,25.17
2019-01-28T06:44:47.867Z,26.40
2019-01-28T06:46:54.369Z,26.07
2019-01-28T06:49:00.767Z,25.70
2019-01-28T06:51:07.247Z,23.70
2019-01-28T06:53:13.881Z,24.80
2019-01-28T06:55:20.985Z,26.13
2019-01-28T06:57:28.945Z,25.60
2019-01-28T06:59:36.241Z,29.67
2019-01-28T07:01:43.017Z,49.07
2019-01-28T07:03:49.885Z,39.63
2019-01-28T07:05:55.986Z,33.30
2019-01-28T07:08:02.286Z,39.47
2019-01-28T07:10:11.166Z,32.70
2019-01-28T07:12:18.845Z,35.03
2019-01-28T07:14:25.342Z,31.53
2019-01-28T07:16:31.385Z,28.67
2019-01-28T07:18:39.886Z,24.87
2019-01-28T07:20:46.405Z,30.80
2019-01-28T07:22:53.846Z,32.53
2019-01-28T07:25:00.385Z,40.00
2019-01-28T07:27:08.567Z,36.50
2019-01-28T07:29:15.052Z,30.23
2019-01-28T07:31:21.606Z,33.77
2019-01-28T07:33:30.585Z,31.07
2019-01-28T07:35:37.254Z,30.67
2019-01-28T07:37:43.873Z,30.73
2019-01-28T07:39:50.248Z,27.93
2019-01-28T07:41:57.366Z,29.30
2019-01-28T07:44:04.325Z,28.23
2019-01-28T07:46:11.927Z,29.23
2019-01-28T07:48:19.845Z,34.60
2019-01-28T07:50:26.329Z,30.20
2019-01-28T07:52:32.894Z,26.80
2019-01-28T07:54:39.375Z,24.33
2019-01-28T07:56:51.865Z,24.07
2019-01-28T07:58:58.426Z,25.43
2019-01-28T08:01:04.789Z,24.40
2019-01-28T08:03:11.346Z,25.43
2019-01-28T08:05:19.645Z,25.10
2019-01-28T08:07:26.175Z,27.10
2019-01-28T08:09:32.686Z,29.80
2019-01-28T08:11:39.565Z,25.20
2019-01-28T08:13:46.126Z,29.63
2019-01-28T08:15:52.666Z,27.07
2019-01-28T08:17:59.386Z,27.37
2019-01-28T08:20:11.933Z,31.43
2019-01-28T08:22:18.805Z,37.40
2019-01-28T08:24:26.945Z,38.07
2019-01-28T08:26:33.645Z,28.70
2019-01-28T08:28:40.106Z,30.23
2019-01-28T08:30:46.768Z,34.43
2019-01-28T08:32:53.546Z,47.47
2019-01-28T08:35:00.726Z,38.47
2019-01-28T08:37:06.972Z,42.03
2019-01-28T08:39:13.528Z,41.03
2019-01-28T08:41:19.865Z,63.57
2019-01-28T08:43:26.471Z,39.47
2019-01-28T08:45:32.665Z,35.63
2019-01-28T08:47:40.031Z,32.93
2019-01-28T08:49:47.767Z,35.00
2019-01-28T08:51:53.794Z,36.43
2019-01-28T08:54:00.084Z,34.07
2019-01-28T08:56:06.426Z,32.33
2019-01-28T08:58:13.646Z,38.07
2019-01-28T09:00:23.128Z,34.73
2019-01-28T09:02:29.586Z,30.60
2019-01-28T09:04:36.406Z,32.93
2019-01-28T09:06:42.725Z,32.00
2019-01-28T09:08:49.107Z,31.57
2019-01-28T09:10:55.566Z,31.90
2019-01-28T09:13:02.226Z,31.73
2019-01-28T09:15:13.293Z,32.00
2019-01-28T09:17:19.665Z,30.60
2019-01-28T09:19:26.066Z,32.17
2019-01-28T09:21:32.827Z,29.40
2019-01-28T09:23:39.425Z,31.57
2019-01-28T09:25:47.325Z,30.57
2019-01-28T09:27:53.667Z,33.10
2019-01-28T09:30:00.049Z,52.17
2019-01-28T09:32:07.846Z,37.23
2019-01-28T09:34:14.390Z,32.53
2019-01-28T09:36:22.587Z,44.00
2019-01-28T09:38:28.805Z,31.20
2019-01-28T09:40:38.727Z,31.30
2019-01-28T09:42:45.434Z,29.13
2019-01-28T09:44:52.327Z,28.77
2019-01-28T09:46:59.566Z,30.70
2019-01-28T09:49:05.712Z,30.63
2019-01-28T09:51:12.346Z,27.83
2019-01-28T09:53:18.866Z,30.70
2019-01-28T09:55:25.234Z,34.00
2019-01-28T09:57:31.425Z,30.10
2019-01-28T09:59:38.108Z,30.90
2019-01-28T10:01:44.827Z,30.20
2019-01-28T10:03:51.186Z,31.77
2019-01-28T10:05:58.346Z,32.47
2019-01-28T10:08:05.188Z,36.90
2019-01-28T10:10:15.986Z,38.07
2019-01-28T10:12:22.267Z,40.93
2019-01-28T10:14:28.734Z,43.53
2019-01-28T10:16:40.828Z,47.90
2019-01-28T10:18:52.526Z,44.03
2019-01-28T10:20:59.345Z,42.43
2019-01-28T10:23:05.829Z,37.53
2019-01-28T10:25:12.046Z,36.27
2019-01-28T10:27:19.867Z,34.80
2019-01-28T10:29:27.666Z,36.03
2019-01-28T10:31:35.089Z,35.70
2019-01-28T10:33:43.006Z,35.30
2019-01-28T10:35:49.487Z,34.83
2019-01-28T10:37:56.107Z,32.40
2019-01-28T10:40:03.007Z,41.23
2019-01-28T10:42:10.206Z,42.93
2019-01-28T10:44:17.949Z,40.33
2019-01-28T10:46:24.486Z,31.67
2019-01-28T10:48:31.026Z,31.00
2019-01-28T10:50:38.466Z,29.80
2019-01-28T10:52:45.734Z,39.07
2019-01-28T10:54:53.792Z,37.37
2019-01-28T10:57:02.547Z,32.67
2019-01-28T10:59:10.405Z,37.93
2019-01-28T11:01:19.749Z,40.53
2019-01-28T11:03:29.226Z,36.07
2019-01-28T11:05:36.895Z,34.90
2019-01-28T11:07:44.145Z,35.73
2019-01-28T11:09:50.524Z,35.87
2019-01-28T11:11:56.833Z,37.07
2019-01-28T11:14:03.050Z,42.60
2019-01-28T11:16:10.228Z,43.73
2019-01-28T11:18:20.557Z,40.53
2019-01-28T11:20:26.731Z,37.63
2019-01-28T11:22:32.916Z,36.17
2019-01-28T11:24:39.290Z,39.30
2019-01-28T11:26:47.112Z,42.97
2019-01-28T11:28:53.771Z,37.87
2019-01-28T11:31:01.352Z,37.77
2019-01-28T11:33:08.308Z,39.23
2019-01-28T11:35:15.838Z,37.87
2019-01-28T11:37:22.432Z,38.60
2019-01-28T11:39:28.773Z,38.63
2019-01-28T11:41:36.049Z,37.43
2019-01-28T11:43:42.490Z,38.70
2019-01-28T11:46:00.448Z,32.87
2019-01-28T11:48:09.061Z,35.40
2019-01-28T11:50:18.369Z,37.23
2019-01-28T11:52:24.869Z,35.83
2019-01-28T11:54:31.190Z,36.17
2019-01-28T11:56:38.633Z,36.67
2019-01-28T11:58:46.609Z,35.13
2019-01-28T12:00:58.293Z,37.27
2019-01-28T12:03:04.668Z,33.40
2019-01-28T12:05:12.209Z,35.60
2019-01-28T12:07:18.669Z,42.53
2019-01-28T12:09:25.289Z,72.13
2019-01-28T12:11:33.488Z,54.27
2019-01-28T12:13:41.448Z,37.77
2019-01-28T12:15:47.731Z,42.40
2019-01-28T12:17:54.388Z,48.77
2019-01-28T12:20:01.943Z,48.33
2019-01-28T12:22:09.252Z,44.63
2019-01-28T12:24:16.232Z,42.23
2019-01-28T12:26:22.999Z,38.53
2019-01-28T12:28:29.469Z,38.60
2019-01-28T12:30:39.291Z,58.03
2019-01-28T12:32:47.455Z,40.33
2019-01-28T12:34:54.313Z,37.87
2019-01-28T12:37:01.330Z,40.17
2019-01-28T12:39:08.991Z,36.53
2019-01-28T12:41:17.484Z,32.13
2019-01-28T12:43:23.949Z,33.80
2019-01-28T12:45:30.793Z,34.57
2019-01-28T12:47:43.829Z,37.13
2019-01-28T12:49:53.988Z,37.77
2019-01-28T12:52:00.808Z,33.93
2019-01-28T12:54:08.868Z,33.30
2019-01-28T12:56:15.617Z,34.53
2019-01-28T12:58:22.393Z,33.83
2019-01-28T13:00:34.450Z,32.67
2019-01-28T13:02:40.991Z,35.63
2019-01-28T13:04:47.148Z,36.17
2019-01-28T13:06:54.408Z,36.70
2019-01-28T13:09:01.017Z,35.77
2019-01-28T13:11:09.348Z,33.97
2019-01-28T13:13:15.509Z,34.33
2019-01-28T13:15:25.988Z,36.80
2019-01-28T13:17:33.309Z,37.90
2019-01-28T13:19:40.184Z,38.70
2019-01-28T13:21:46.567Z,39.13
2019-01-28T13:23:54.451Z,35.53
2019-01-28T13:26:02.528Z,36.00
2019-01-28T13:28:10.233Z,37.83
2019-01-28T13:30:31.028Z,37.07
2019-01-28T13:32:38.163Z,35.77
2019-01-28T13:34:45.448Z,36.20
2019-01-28T13:36:52.367Z,35.93
2019-01-28T13:38:58.729Z,35.83
2019-01-28T13:41:05.368Z,38.17
2019-01-28T13:43:12.369Z,38.53
2019-01-28T13:45:21.549Z,35.90
2019-01-28T13:47:28.889Z,38.40
2019-01-28T13:49:38.437Z,38.53
2019-01-28T13:51:44.069Z,36.17
2019-01-28T13:53:51.970Z,37.27
2019-01-28T13:55:58.229Z,37.50
2019-01-28T13:58:04.929Z,38.03
2019-01-28T14:00:24.229Z,38.30
2019-01-28T14:02:30.690Z,39.77
2019-01-28T14:04:40.054Z,48.53
2019-01-28T14:06:46.928Z,40.77
2019-01-28T14:08:53.208Z,48.67
2019-01-28T14:10:59.550Z,39.83
2019-01-28T14:13:06.048Z,40.10
2019-01-28T14:15:17.008Z,42.00
2019-01-28T14:17:25.448Z,44.30
2019-01-28T14:19:31.808Z,45.03
2019-01-28T14:21:39.408Z,42.63
2019-01-28T14:23:45.930Z,43.07
2019-01-28T14:25:52.290Z,43.57
2019-01-28T14:31:19.392Z,49.80
2019-01-28T14:33:26.988Z,48.40
2019-01-28T14:35:33.649Z,43.67
2019-01-28T14:37:40.209Z,44.43
2019-01-28T14:39:46.808Z,42.87
2019-01-28T14:41:52.989Z,45.87
2019-01-28T14:43:59.468Z,44.07
2019-01-28T14:46:05.975Z,48.77
2019-01-28T14:48:13.068Z,45.10
2019-01-28T14:50:24.776Z,46.10
2019-01-28T14:52:31.487Z,45.80
2019-01-28T14:54:39.108Z,45.83
2019-01-28T14:56:45.812Z,45.40
2019-01-28T14:58:53.468Z,47.87
2019-01-28T15:01:00.149Z,51.97
2019-01-28T15:03:06.836Z,53.90
2019-01-28T15:05:13.968Z,54.03
2019-01-28T15:07:21.691Z,54.30
2019-01-28T15:09:28.270Z,51.83
2019-01-28T15:11:35.007Z,49.47
2019-01-28T15:13:42.989Z,56.30
2019-01-28T15:15:49.488Z,55.60
2019-01-28T15:17:57.010Z,50.33
2019-01-28T15:20:03.831Z,52.50
2019-01-28T15:22:10.528Z,54.43
2019-01-28T15:24:16.768Z,58.87
2019-01-28T15:26:23.112Z,54.47
2019-01-28T15:28:29.608Z,62.43
2019-01-28T15:30:36.437Z,71.93
2019-01-28T15:32:54.784Z,74.43
2019-01-28T15:35:01.248Z,71.07
2019-01-28T15:37:08.208Z,62.57
2019-01-28T15:39:14.467Z,65.40
2019-01-28T15:41:22.193Z,69.97
2019-01-28T15:43:29.369Z,61.93
2019-01-28T15:45:39.102Z,65.67
2019-01-28T15:47:45.468Z,71.83
2019-01-28T15:49:52.735Z,66.13
2019-01-28T15:51:59.088Z,64.70
2019-01-28T15:54:08.110Z,64.07
2019-01-28T15:56:15.129Z,64.73
2019-01-28T15:58:21.368Z,68.07
2019-01-28T16:00:36.689Z,67.57
2019-01-28T16:02:44.839Z,73.87
2019-01-28T16:04:51.237Z,66.63
2019-01-28T16:06:57.549Z,70.43
2019-01-28T16:09:05.349Z,71.70
2019-01-28T16:11:12.417Z,69.87
2019-01-28T16:13:18.929Z,68.70
2019-01-28T16:15:36.008Z,70.53
2019-01-28T16:17:42.686Z,77.80
2019-01-28T16:19:49.089Z,93.30
2019-01-28T16:21:56.373Z,93.93
2019-01-28T16:24:03.529Z,136.17
2019-01-28T16:26:10.009Z,91.03
2019-01-28T16:28:16.651Z,92.53
2019-01-28T16:30:28.609Z,81.47
2019-01-28T16:32:35.049Z,73.53
2019-01-28T16:34:56.350Z,73.03
2019-01-28T16:37:03.009Z,62.47
2019-01-28T16:39:09.748Z,69.33
2019-01-28T16:41:16.628Z,60.97
2019-01-28T16:43:23.748Z,59.60
2019-01-28T16:45:31.551Z,63.63
2019-01-28T16:47:38.008Z,56.83
2019-01-28T16:49:44.448Z,57.17
2019-01-28T16:51:51.089Z,56.47
2019-01-28T16:53:58.076Z,60.87
2019-01-28T16:56:05.116Z,64.07
2019-01-28T16:58:13.280Z,63.80
2019-01-28T17:00:29.568Z,59.70
2019-01-28T17:02:36.449Z,67.10
2019-01-28T17:04:43.030Z,78.37
2019-01-28T17:06:49.670Z,69.07
2019-01-28T17:09:01.009Z,71.23
2019-01-28T17:11:09.636Z,64.33
2019-01-28T17:13:19.770Z,61.97
2019-01-28T17:15:29.008Z,58.97
2019-01-28T17:17:35.996Z,57.63
2019-01-28T17:19:42.782Z,56.73
2019-01-28T17:21:49.549Z,54.30
2019-01-28T17:23:56.397Z,51.50
2019-01-28T17:26:03.258Z,54.33
2019-01-28T17:28:09.968Z,63.17
2019-01-28T17:30:26.630Z,79.47
2019-01-28T17:32:33.029Z,76.13
2019-01-28T17:34:42.717Z,80.93
2019-01-28T17:39:24.445Z,57.77
2019-01-28T17:41:30.951Z,55.00
2019-01-28T17:43:37.903Z,61.47
2019-01-28T17:45:44.769Z,87.10
2019-01-28T17:47:51.688Z,91.90
2019-01-28T17:52:27.488Z,56.33
2019-01-28T17:54:34.449Z,53.57
2019-01-28T17:56:42.048Z,56.13
2019-01-28T17:58:49.181Z,53.27
2019-01-28T18:00:56.910Z,49.03
2019-01-28T18:03:04.249Z,47.23
2019-01-28T18:05:11.708Z,48.40
2019-01-28T18:07:19.188Z,50.67
2019-01-28T18:09:26.489Z,48.00
2019-01-28T18:11:34.008Z,50.40
2019-01-28T18:13:40.849Z,49.17
2019-01-28T18:15:47.629Z,52.10
2019-01-28T18:18:01.528Z,59.10
2019-01-28T18:20:16.110Z,53.93
2019-01-28T18:22:23.152Z,49.90
2019-01-28T18:24:29.949Z,45.50
2019-01-28T18:26:36.501Z,47.83
2019-01-28T18:28:43.369Z,45.70
2019-01-28T18:30:51.270Z,45.27
2019-01-28T18:32:58.468Z,46.93
2019-01-28T18:35:07.834Z,48.87
2019-01-28T18:37:15.190Z,51.27
2019-01-28T18:39:22.590Z,49.60
2019-01-28T18:41:29.989Z,50.17
2019-01-28T18:43:37.288Z,52.17
2019-01-28T18:45:46.009Z,69.10
2019-01-28T18:47:52.868Z,63.93
2019-01-28T18:49:59.637Z,56.13
2019-01-28T18:52:06.368Z,54.13
2019-01-28T18:54:13.389Z,51.53
2019-01-28T18:56:19.948Z,51.37
2019-01-28T18:58:27.488Z,53.10
2019-01-28T19:00:35.737Z,50.90
2019-01-28T19:02:42.528Z,49.93
2019-01-28T19:04:50.848Z,48.83
2019-01-28T19:07:02.022Z,50.93
2019-01-28T19:09:10.988Z,47.90
2019-01-28T19:11:19.632Z,48.80
2019-01-28T19:13:34.068Z,47.97
2019-01-28T19:15:42.608Z,46.70
2019-01-28T19:17:54.015Z,44.83
2019-01-28T19:20:23.108Z,45.43
2019-01-28T19:22:29.949Z,47.10
2019-01-28T19:24:36.850Z,51.00
2019-01-28T19:26:45.049Z,48.50
2019-01-28T19:28:52.048Z,48.10
2019-01-28T19:30:58.871Z,54.40
2019-01-28T19:33:05.708Z,52.83
2019-01-28T19:35:12.677Z,61.20
2019-01-28T19:37:20.569Z,62.27
2019-01-28T19:39:27.427Z,62.00
2019-01-28T19:41:34.848Z,62.57
2019-01-28T19:43:41.835Z,59.00
2019-01-28T19:45:48.728Z,56.73
2019-01-28T19:47:55.770Z,54.57
2019-01-28T19:50:02.728Z,52.53
2019-01-28T19:52:10.055Z,54.17
2019-01-28T19:54:16.816Z,55.77
2019-01-28T19:56:23.675Z,55.03
2019-01-28T19:58:31.040Z,58.23
2019-01-28T20:00:37.589Z,59.37
2019-01-28T20:02:44.473Z,52.67
2019-01-28T20:04:51.128Z,53.67
2019-01-28T20:06:57.728Z,51.97
2019-01-28T20:09:06.309Z,51.40
2019-01-28T20:11:14.956Z,53.03
2019-01-28T20:13:21.629Z,51.93
2019-01-28T20:15:29.216Z,51.43
2019-01-28T20:17:36.570Z,51.93
2019-01-28T20:19:43.709Z,47.47
2019-01-28T20:21:50.548Z,51.63
2019-01-28T20:23:57.630Z,51.27
2019-01-28T20:26:04.497Z,51.00
2019-01-28T20:28:11.464Z,50.93
2019-01-28T20:30:27.012Z,52.53
2019-01-28T20:32:34.928Z,51.60
2019-01-28T20:34:43.484Z,53.57
2019-01-28T20:36:50.349Z,70.43
2019-01-28T20:38:58.269Z,68.70
2019-01-28T20:41:06.689Z,64.03
2019-01-28T20:43:14.069Z,60.23
2019-01-28T20:45:29.690Z,55.80
2019-01-28T20:47:39.210Z,50.50
2019-01-28T20:49:47.389Z,61.33
2019-01-28T20:51:54.481Z,55.13
2019-01-28T20:54:01.360Z,55.47
2019-01-28T20:56:09.251Z,53.77
2019-01-28T20:58:16.450Z,50.97
2019-01-28T21:00:29.024Z,47.80
2019-01-28T21:02:36.446Z,51.97
2019-01-28T21:04:43.463Z,53.47
2019-01-28T21:06:50.331Z,53.37
2019-01-28T21:08:57.729Z,57.53
2019-01-28T21:11:05.028Z,54.80
2019-01-28T21:13:11.912Z,50.93
2019-01-28T21:15:19.656Z,51.17
2019-01-28T21:17:27.461Z,48.10
2019-01-28T21:19:34.481Z,48.20
2019-01-28T21:21:41.940Z,45.90
2019-01-28T21:23:51.551Z,45.67
2019-01-28T21:25:58.913Z,44.07
2019-01-28T21:28:06.171Z,43.60
2019-01-28T21:30:22.471Z,44.67
2019-01-28T21:32:29.373Z,43.53
2019-01-28T21:34:35.991Z,47.17
2019-01-28T21:36:50.191Z,46.60
2019-01-28T21:38:56.672Z,44.23
2019-01-28T21:41:03.171Z,43.53
2019-01-28T21:43:09.738Z,43.97
2019-01-28T21:45:16.911Z,49.40
2019-01-28T21:47:23.679Z,44.90
2019-01-28T21:49:30.427Z,49.13
2019-01-28T21:51:38.450Z,48.50
2019-01-28T21:53:44.851Z,47.93
2019-01-28T21:55:51.410Z,50.30
2019-01-28T21:57:57.951Z,50.57
2019-01-28T22:00:06.198Z,43.77
2019-01-28T22:02:13.733Z,44.80
2019-01-28T22:04:20.051Z,45.20
2019-01-28T22:06:26.413Z,43.03
2019-01-28T22:08:32.971Z,42.83
2019-01-28T22:10:39.570Z,47.17
2019-01-28T22:12:45.974Z,45.77
2019-01-28T22:14:52.230Z,48.97
2019-01-28T22:16:58.830Z,48.60
2019-01-28T22:19:05.152Z,47.23
2019-01-28T22:21:12.951Z,49.57
2019-01-28T22:23:22.770Z,45.90
2019-01-28T22:25:34.092Z,48.93
2019-01-28T22:27:41.711Z,49.30
2019-01-28T22:29:52.090Z,50.33
2019-01-28T22:31:58.659Z,47.20
2019-01-28T22:34:05.131Z,49.63
2019-01-28T22:36:11.850Z,51.83
2019-01-28T22:38:18.331Z,49.77
2019-01-28T22:40:24.788Z,47.87
2019-01-28T22:42:32.749Z,46.67
2019-01-28T22:44:39.092Z,48.90
2019-01-28T22:46:45.469Z,48.73
2019-01-28T22:48:52.529Z,49.13
2019-01-28T22:50:58.828Z,45.43
2019-01-28T22:53:07.018Z,43.90
2019-01-28T22:55:20.497Z,45.53
2019-01-28T22:57:28.090Z,41.63
2019-01-28T22:59:34.609Z,46.13
2019-01-28T23:01:41.273Z,47.60
2019-01-28T23:03:48.209Z,50.00
2019-01-28T23:05:54.969Z,49.07
2019-01-28T23:08:02.611Z,47.37
2019-01-28T23:10:09.861Z,41.20
2019-01-28T23:12:16.408Z,44.27
2019-01-28T23:14:23.408Z,41.83
2019-01-28T23:16:30.448Z,42.07
2019-01-28T23:18:36.769Z,41.00
2019-01-28T23:20:44.088Z,44.00
2019-01-28T23:22:50.475Z,43.70
2019-01-28T23:24:56.969Z,40.57
2019-01-28T23:27:03.989Z,41.20
2019-01-28T23:29:11.531Z,43.03
2019-01-28T23:31:17.869Z,40.47
2019-01-28T23:33:25.748Z,41.00
2019-01-28T23:35:34.069Z,43.17
2019-01-28T23:44:07.809Z,47.27
2019-01-28T23:46:18.491Z,49.33
2019-01-28T23:48:30.868Z,49.10
2019-01-28T23:50:38.488Z,46.93
2019-01-28T23:52:44.788Z,45.53
2019-01-28T23:54:51.059Z,45.23
2019-01-28T23:56:58.249Z,46.33
2019-01-28T23:59:05.868Z,45.27
